Time;durP1;ratioP1;P1;durP2;ratioP2;P2;SDS_P1;SDS_P2;PMS_P1;PMS_P2;Temp;Humidity;BMP_temperature;BMP_pressure;BME280_temperature;BME280_humidity;BME280_pressure;Samples;Min_cycle;Max_cycle;Signal;HPM_P1;HPM_P2
2021/09/06 00:00:57;;;;;;;4.90;4.38;;;;;;;9.71;100.00;93621.00;2107226;28;20051;-88
2021/09/06 00:01:58;;;;;;;15.98;5.18;;;;;;;9.72;100.00;93624.41;2099074;28;20137;-89
2021/09/06 00:02:59;;;;;;;5.60;3.72;;;;;;;9.63;100.00;93627.56;2098820;28;20025;-89
2021/09/06 00:04:00;;;;;;;4.88;3.58;;;;;;;9.74;100.00;93624.75;2091251;28;20029;-89
2021/09/06 00:05:04;;;;;;;5.53;3.65;;;;;;;9.66;100.00;93629.44;2106338;28;20028;-87
2021/09/06 00:06:05;;;;;;;5.25;3.97;;;;;;;9.63;100.00;93630.22;2099165;28;20479;-90
2021/09/06 00:07:06;;;;;;;4.30;3.90;;;;;;;9.67;100.00;93616.84;2106598;28;20105;-90
2021/09/06 00:08:07;;;;;;;4.35;3.95;;;;;;;9.64;100.00;93622.97;2098421;28;20079;-90
2021/09/06 00:09:11;;;;;;;4.10;3.70;;;;;;;9.66;100.00;93620.66;2106697;28;20618;-90
2021/09/06 00:10:29;;;;;;;4.15;3.67;;;;;;;9.60;100.00;93620.31;2108298;27;20034;-89
2021/09/06 00:11:30;;;;;;;7.93;4.03;;;;;;;9.52;100.00;93616.22;2111706;28;20432;-88
2021/09/06 00:12:30;;;;;;;3.88;3.53;;;;;;;9.58;100.00;93623.41;2098565;28;20024;-89
2021/09/06 00:13:32;;;;;;;7.35;3.80;;;;;;;9.56;100.00;93620.34;2093861;28;20051;-89
2021/09/06 00:14:33;;;;;;;4.05;3.65;;;;;;;9.53;100.00;93615.84;2115442;28;20824;-89
2021/09/06 00:15:35;;;;;;;4.25;3.67;;;;;;;9.58;100.00;93615.41;2115405;28;20028;-88
2021/09/06 00:16:36;;;;;;;4.22;3.72;;;;;;;9.55;100.00;93623.44;2107320;28;20070;-89
2021/09/06 00:17:37;;;;;;;4.00;3.60;;;;;;;9.56;100.00;93617.69;2110563;28;20553;-89
2021/09/06 00:18:38;;;;;;;6.63;4.70;;;;;;;9.52;100.00;93618.88;2094044;28;20028;-90
2021/09/06 00:19:39;;;;;;;3.83;3.50;;;;;;;9.51;100.00;93612.03;2096003;28;20031;-89
2021/09/06 00:20:41;;;;;;;4.38;3.97;;;;;;;9.56;100.00;93609.69;2108582;27;20484;-89
2021/09/06 00:21:42;;;;;;;4.90;3.78;;;;;;;9.59;100.00;93619.56;2115112;28;20024;-89
2021/09/06 00:22:43;;;;;;;5.07;4.00;;;;;;;9.56;100.00;93611.59;2115357;28;20038;-89
2021/09/06 00:23:44;;;;;;;8.90;3.85;;;;;;;9.57;100.00;93613.13;2107034;28;20020;-89
2021/09/06 00:24:45;;;;;;;4.00;3.70;;;;;;;9.58;100.00;93611.97;2098721;28;20021;-87
2021/09/06 00:25:46;;;;;;;3.97;3.67;;;;;;;9.48;100.00;93612.81;2106973;28;20027;-87
2021/09/06 00:26:48;;;;;;;3.85;3.50;;;;;;;9.57;100.00;93605.13;2094072;28;20112;-88
2021/09/06 00:27:49;;;;;;;7.07;3.80;;;;;;;9.52;100.00;93614.28;2092388;28;20068;-88
2021/09/06 00:28:50;;;;;;;4.57;3.80;;;;;;;9.48;100.00;93610.16;2098704;28;20105;-86
2021/09/06 00:29:51;;;;;;;4.00;3.70;;;;;;;9.56;100.00;93609.69;2098629;28;20043;-89
2021/09/06 00:30:52;;;;;;;3.70;3.40;;;;;;;9.60;100.00;93609.66;2119477;27;20065;-89
2021/09/06 00:31:53;;;;;;;3.95;3.65;;;;;;;9.56;100.00;93609.69;2106726;28;20411;-87
2021/09/06 00:32:54;;;;;;;6.50;3.42;;;;;;;9.57;100.00;93616.56;2105232;28;20155;-89
2021/09/06 00:33:55;;;;;;;4.68;3.80;;;;;;;9.58;100.00;93611.97;2108082;28;20020;-87
2021/09/06 00:34:56;;;;;;;4.13;3.83;;;;;;;9.55;100.00;93613.50;2101323;28;20020;-90
2021/09/06 00:35:57;;;;;;;4.22;3.83;;;;;;;9.50;100.00;93605.94;2091249;28;20029;-89
2021/09/06 00:36:58;;;;;;;6.07;3.33;;;;;;;9.47;100.00;93612.06;2090029;28;20033;-89
2021/09/06 00:37:59;;;;;;;3.70;3.40;;;;;;;9.53;100.00;93610.50;2092555;28;20605;-89
2021/09/06 00:39:00;;;;;;;4.10;3.55;;;;;;;9.53;100.00;93613.16;2090324;28;20025;-88
2021/09/06 00:40:01;;;;;;;4.53;4.13;;;;;;;9.51;100.00;93610.13;2106805;28;20035;-88
2021/09/06 00:41:02;;;;;;;5.05;4.13;;;;;;;9.50;100.00;93613.19;2115101;28;20027;-87
2021/09/06 00:42:03;;;;;;;4.13;3.72;;;;;;;9.48;100.00;93605.59;2098422;28;20062;-89
2021/09/06 00:43:04;;;;;;;4.53;3.60;;;;;;;9.47;100.00;93611.31;2098193;28;20736;-89
2021/09/06 00:44:05;;;;;;;4.18;3.78;;;;;;;9.52;100.00;93616.97;2102462;28;20053;-88
2021/09/06 00:45:06;;;;;;;3.50;3.20;;;;;;;9.53;100.00;93609.75;2106775;28;20024;-88
2021/09/06 00:46:07;;;;;;;3.88;3.47;;;;;;;9.54;100.00;93605.91;2111179;28;20031;-89
2021/09/06 00:47:08;;;;;;;4.82;3.30;;;;;;;9.52;100.00;93608.97;2105418;28;20039;-88
2021/09/06 00:48:09;;;;;;;6.15;3.80;;;;;;;9.45;100.00;93611.72;2098276;28;20035;-91
2021/09/06 00:49:10;;;;;;;6.47;3.63;;;;;;;9.38;100.00;93609.09;2090133;28;20501;-89
2021/09/06 00:50:13;;;;;;;6.55;3.60;;;;;;;9.49;100.00;93603.69;2090886;28;20099;-89
2021/09/06 00:51:14;;;;;;;4.78;4.00;;;;;;;9.50;100.00;93613.19;2093012;28;20059;-89
2021/09/06 00:52:15;;;;;;;4.90;4.30;;;;;;;9.46;100.00;93610.56;2106625;28;20035;-89
2021/09/06 00:53:16;;;;;;;3.67;3.38;;;;;;;9.49;100.00;93609.03;2098193;28;20111;-89
2021/09/06 00:54:17;;;;;;;5.03;4.25;;;;;;;9.51;100.00;93606.69;2106384;28;20496;-88
2021/09/06 00:55:18;;;;;;;4.72;3.95;;;;;;;9.51;100.00;93607.44;2098225;28;20051;-89
2021/09/06 00:56:19;;;;;;;5.68;4.18;;;;;;;9.52;100.00;93611.63;2098151;28;20708;-88
2021/09/06 00:57:20;;;;;;;4.93;4.07;;;;;;;9.53;100.00;93610.50;2091847;28;20083;-89
2021/09/06 00:58:24;;;;;;;3.80;3.50;;;;;;;9.57;100.00;93608.56;2091949;28;20563;-89
2021/09/06 00:59:25;;;;;;;5.15;3.90;;;;;;;9.57;100.00;93608.56;2098963;28;20082;-89
2021/09/06 01:00:26;;;;;;;5.50;3.60;;;;;;;9.59;100.00;93613.47;2098436;28;20051;-88
2021/09/06 01:01:27;;;;;;;3.85;3.42;;;;;;;9.64;100.00;93613.03;2106756;28;20492;-88
2021/09/06 01:02:28;;;;;;;6.63;4.00;;;;;;;9.61;100.00;93611.16;2106282;28;20020;-89
2021/09/06 01:03:29;;;;;;;7.32;3.75;;;;;;;9.57;100.00;93610.47;2097213;28;20046;-89
2021/09/06 01:04:30;;;;;;;6.50;3.50;;;;;;;9.57;100.00;93608.56;2106372;28;20039;-89
2021/09/06 01:05:31;;;;;;;5.47;3.75;;;;;;;9.51;100.00;93610.13;2103061;28;20024;-90
2021/09/06 01:06:32;;;;;;;4.47;3.70;;;;;;;9.57;100.00;93607.78;2102219;28;20135;-89
2021/09/06 01:07:33;;;;;;;5.25;4.25;;;;;;;9.57;100.00;93607.78;2093257;28;20032;-90
2021/09/06 01:08:34;;;;;;;4.10;3.63;;;;;;;9.53;100.00;93610.50;2096008;28;20048;-88
2021/09/06 01:09:34;;;;;;;4.78;4.38;;;;;;;9.53;100.00;93615.06;2092545;28;20024;-88
2021/09/06 01:10:36;;;;;;;3.97;3.33;;;;;;;9.63;100.00;93616.13;2104742;28;20035;-88
2021/09/06 01:11:37;;;;;;;7.47;3.63;;;;;;;9.56;100.00;93608.94;2101466;28;20020;-88
2021/09/06 01:12:38;;;;;;;3.92;3.53;;;;;;;9.55;100.00;93613.50;2097220;28;20024;-90
2021/09/06 01:13:39;;;;;;;4.68;3.97;;;;;;;9.59;100.00;93611.56;2105754;28;20027;-88
2021/09/06 01:14:41;;;;;;;4.15;3.75;;;;;;;9.61;100.00;93605.81;2101912;28;20576;-91
2021/09/06 01:15:42;;;;;;;4.53;4.10;;;;;;;9.52;100.00;93608.97;2106218;28;20096;-88
2021/09/06 01:16:44;;;;;;;4.60;4.20;;;;;;;9.55;100.00;93610.09;2115005;28;20031;-90
2021/09/06 01:17:45;;;;;;;6.97;3.90;;;;;;;9.54;100.00;93606.66;2106277;28;20031;-90
2021/09/06 01:18:46;;;;;;;6.88;3.83;;;;;;;9.53;100.00;93609.75;2101823;28;20034;-89
2021/09/06 01:19:47;;;;;;;4.53;4.13;;;;;;;9.58;100.00;93602.06;2115534;27;20027;-89
2021/09/06 01:20:47;;;;;;;4.38;3.50;;;;;;;9.60;100.00;93609.66;2109195;28;20456;-89
2021/09/06 01:21:49;;;;;;;5.82;3.53;;;;;;;9.64;100.00;93609.63;2097432;28;20389;-88
2021/09/06 01:22:50;;;;;;;7.80;4.63;;;;;;;9.61;100.00;93613.06;2097920;28;20029;-90
2021/09/06 01:25:49;;;;;;;3.90;3.60;;;;;;;9.45;100.00;93610.97;2117494;27;20027;-89
2021/09/06 01:26:50;;;;;;;4.55;3.63;;;;;;;9.52;100.00;93624.97;2104174;28;20051;-90
2021/09/06 01:27:51;;;;;;;6.97;3.60;;;;;;;9.52;100.00;93616.22;2101946;28;20032;-89
2021/09/06 01:28:52;;;;;;;4.05;3.72;;;;;;;9.53;100.00;93612.41;2106262;28;20027;-90
2021/09/06 01:29:53;;;;;;;5.18;3.88;;;;;;;9.48;100.00;93621.59;2108249;28;20027;-89
2021/09/06 01:30:54;;;;;;;4.13;3.60;;;;;;;9.50;100.00;93621.94;2099683;28;20119;-89
2021/09/06 01:31:55;;;;;;;5.20;3.78;;;;;;;9.45;100.00;93621.63;2097863;28;20024;-89
2021/09/06 01:32:56;;;;;;;5.28;3.53;;;;;;;9.46;100.00;93612.47;2092321;28;20021;-89
2021/09/06 01:33:57;;;;;;;6.40;3.70;;;;;;;9.46;100.00;93621.22;2097914;28;20044;-90
2021/09/06 01:34:58;;;;;;;4.32;3.92;;;;;;;9.44;100.00;93617.44;2097974;28;20028;-89
2021/09/06 01:35:59;;;;;;;10.73;4.03;;;;;;;9.44;100.00;93615.53;2106275;28;20028;-89
2021/09/06 01:37:00;;;;;;;6.13;3.78;;;;;;;9.40;100.00;93616.72;2106727;28;20035;-89
2021/09/06 01:38:02;;;;;;;4.95;3.63;;;;;;;9.34;100.00;93616.38;2119269;27;20019;-87
2021/09/06 01:39:04;;;;;;;7.75;4.18;;;;;;;9.38;100.00;93614.44;2114343;28;20035;-89
2021/09/06 01:40:06;;;;;;;4.43;3.97;;;;;;;9.35;100.00;93620.59;2089992;28;20465;-90
2021/09/06 01:41:07;;;;;;;4.78;3.92;;;;;;;9.31;100.00;93617.94;2106371;28;20141;-87
2021/09/06 01:42:08;;;;;;;6.78;4.03;;;;;;;9.32;100.00;93616.03;2097959;28;20028;-89
2021/09/06 01:43:09;;;;;;;4.93;4.13;;;;;;;9.28;100.00;93612.63;2105823;28;20024;-90
2021/09/06 01:44:10;;;;;;;5.50;4.45;;;;;;;9.34;100.00;93613.72;2097787;28;20016;-89
2021/09/06 01:45:11;;;;;;;8.02;4.25;;;;;;;9.34;100.00;93619.81;2098573;28;20386;-90
2021/09/06 01:46:12;;;;;;;6.82;3.92;;;;;;;9.32;100.00;93611.44;2097828;28;20025;-88
2021/09/06 01:47:13;;;;;;;5.57;3.80;;;;;;;9.31;100.00;93617.94;2106359;28;20458;-89
2021/09/06 01:48:14;;;;;;;3.90;3.35;;;;;;;9.29;100.00;93612.22;2106071;28;20016;-90
2021/09/06 01:49:15;;;;;;;6.47;4.20;;;;;;;9.27;100.00;93608.47;2106365;28;20035;-89
2021/09/06 01:50:15;;;;;;;3.97;3.58;;;;;;;9.32;100.00;93610.69;2097854;28;20124;-89
2021/09/06 01:51:16;;;;;;;4.78;4.30;;;;;;;9.19;100.00;93620.34;2103585;28;20073;-90
2021/09/06 01:52:17;;;;;;;6.05;4.55;;;;;;;9.18;100.00;93618.81;2123170;27;20349;-90
2021/09/06 01:53:18;;;;;;;5.63;3.85;;;;;;;9.23;100.00;93615.72;2114693;28;20045;-89
2021/09/06 01:54:19;;;;;;;4.15;3.75;;;;;;;9.26;100.00;93612.25;2104318;28;20126;-89
2021/09/06 01:55:20;;;;;;;8.60;3.70;;;;;;;9.17;100.00;93614.63;2103950;28;20093;-89
2021/09/06 01:56:21;;;;;;;4.25;3.45;;;;;;;9.19;100.00;93615.00;2095691;28;20024;-91
2021/09/06 01:57:22;;;;;;;7.10;3.72;;;;;;;9.15;100.00;93614.28;2100113;28;20071;-88
2021/09/06 01:58:23;;;;;;;8.93;3.55;;;;;;;9.07;100.00;93616.22;2109865;28;20350;-89
2021/09/06 01:59:24;;;;;;;5.97;3.78;;;;;;;9.10;100.00;93615.44;2110171;28;20069;-88
2021/09/06 02:00:25;;;;;;;8.82;4.45;;;;;;;9.07;100.00;93627.66;2102054;28;20023;-89
2021/09/06 02:01:26;;;;;;;4.50;4.10;;;;;;;9.06;100.00;93622.72;2103373;28;20024;-87
2021/09/06 02:02:27;;;;;;;4.63;4.22;;;;;;;9.14;100.00;93623.44;2097720;28;20458;-90
2021/09/06 02:03:28;;;;;;;7.47;4.13;;;;;;;9.12;100.00;93623.06;2100568;28;20039;-89
2021/09/06 02:04:29;;;;;;;4.70;3.97;;;;;;;9.11;100.00;93621.53;2098946;28;20063;-88
2021/09/06 02:07:14;;;;;;;;;;;;;;;9.14;100.00;93623.44;2148860;27;20473;-80
2021/09/06 02:08:15;;;;;;;5.70;3.83;;;;;;;9.16;100.00;93626.44;2133055;27;19911;-80
2021/09/06 02:09:16;;;;;;;16.48;5.70;;;;;;;9.03;100.00;93629.59;2121776;28;20015;-80
2021/09/06 02:10:17;;;;;;;5.55;3.70;;;;;;;9.14;100.00;93620.75;2121931;27;20384;-80
2021/09/06 02:11:18;;;;;;;5.93;4.40;;;;;;;9.03;100.00;93621.59;2121933;27;20027;-81
2021/09/06 02:12:19;;;;;;;4.70;4.18;;;;;;;8.97;100.00;93628.50;2123573;27;20506;-80
2021/09/06 02:13:21;;;;;;;4.93;4.53;;;;;;;8.92;100.00;93628.16;2125648;27;20162;-81
2021/09/06 02:14:22;;;;;;;9.98;4.00;;;;;;;8.94;100.00;93623.94;2119436;27;20412;-81
2021/09/06 02:15:23;;;;;;;6.80;4.20;;;;;;;9.02;100.00;93624.66;2124612;27;20158;-79
2021/09/06 02:16:24;;;;;;;7.63;4.55;;;;;;;8.95;100.00;93627.38;2134074;27;20019;-79
2021/09/06 02:17:25;;;;;;;4.68;4.28;;;;;;;8.97;100.00;93627.75;2142426;27;20030;-80
2021/09/06 02:18:26;;;;;;;11.07;4.35;;;;;;;8.95;100.00;93625.44;2127303;27;20042;-81
2021/09/06 02:19:27;;;;;;;5.32;4.72;;;;;;;8.93;100.00;93625.09;2121759;27;20072;-80
2021/09/06 02:20:28;;;;;;;11.93;4.50;;;;;;;8.88;100.00;93622.84;2126232;27;20019;-82
2021/09/06 02:21:29;;;;;;;4.03;3.72;;;;;;;8.99;100.00;93626.19;2125031;27;20398;-80
2021/09/06 02:22:29;;;;;;;5.63;4.22;;;;;;;9.02;100.00;93619.31;2134851;27;20034;-82
2021/09/06 02:23:30;;;;;;;5.05;4.50;;;;;;;8.99;100.00;93628.84;2137202;27;20030;-80
2021/09/06 02:24:31;;;;;;;6.55;4.40;;;;;;;9.03;100.00;93626.16;2129997;27;20026;-80
2021/09/06 02:25:32;;;;;;;4.47;4.07;;;;;;;9.03;100.00;93628.81;2130300;27;20038;-82
2021/09/06 02:26:36;;;;;;;8.25;4.57;;;;;;;9.02;100.00;93624.66;2130112;27;20048;-80
2021/09/06 02:27:37;;;;;;;5.93;4.43;;;;;;;9.03;100.00;93620.81;2130358;27;20030;-81
2021/09/06 02:28:38;;;;;;;5.68;4.55;;;;;;;9.05;100.00;93629.22;2121877;27;20425;-83
2021/09/06 02:29:39;;;;;;;6.53;4.47;;;;;;;8.93;100.00;93624.34;2125971;27;20474;-80
2021/09/06 02:30:40;;;;;;;4.63;4.22;;;;;;;8.98;100.00;93622.00;2130416;27;20023;-81
2021/09/06 02:31:41;;;;;;;5.20;4.70;;;;;;;9.00;100.00;93633.06;2134952;27;20080;-82
2021/09/06 02:32:42;;;;;;;4.97;4.50;;;;;;;9.00;100.00;93633.06;2133704;27;20153;-79
2021/09/06 02:33:43;;;;;;;10.30;5.20;;;;;;;8.92;100.00;93625.50;2135444;27;20204;-82
2021/09/06 02:34:44;;;;;;;9.48;4.95;;;;;;;8.93;100.00;93627.75;2133386;27;20023;-81
2021/09/06 02:35:45;;;;;;;5.22;4.72;;;;;;;8.92;100.00;93634.25;2113210;28;20464;-79
2021/09/06 02:36:45;;;;;;;4.85;4.43;;;;;;;8.93;100.00;93638.44;2113148;27;20027;-80
2021/09/06 02:37:46;;;;;;;4.78;4.00;;;;;;;8.86;100.00;93632.38;2118520;27;20055;-81
2021/09/06 02:38:47;;;;;;;5.35;4.85;;;;;;;8.89;100.00;93629.69;2115980;27;20034;-82
2021/09/06 02:39:48;;;;;;;5.95;4.18;;;;;;;8.91;100.00;93632.75;2127412;27;20030;-81
2021/09/06 02:40:49;;;;;;;4.82;4.43;;;;;;;8.89;100.00;93634.28;2132847;27;20359;-80
2021/09/06 02:41:51;;;;;;;5.35;4.45;;;;;;;8.93;100.00;93632.34;2136252;27;20033;-81
2021/09/06 02:42:52;;;;;;;8.10;4.25;;;;;;;8.90;100.00;93633.88;2123714;27;20058;-80
2021/09/06 02:43:52;;;;;;;4.45;4.05;;;;;;;8.91;100.00;93632.75;2127905;27;20042;-79
2021/09/06 02:44:53;;;;;;;6.18;4.50;;;;;;;8.89;100.00;93632.34;2138762;27;20022;-82
2021/09/06 02:45:54;;;;;;;4.60;4.05;;;;;;;8.81;100.00;93634.31;2123436;27;20498;-82
2021/09/06 02:46:56;;;;;;;4.82;4.35;;;;;;;8.87;100.00;93628.56;2136984;27;20526;-81
2021/09/06 02:47:56;;;;;;;6.03;4.35;;;;;;;8.84;100.00;93630.13;2130325;27;20089;-80
2021/09/06 02:48:57;;;;;;;4.60;4.20;;;;;;;8.85;100.00;93631.63;2134371;27;20150;-79
2021/09/06 02:49:58;;;;;;;7.13;4.85;;;;;;;8.82;100.00;93627.84;2134577;27;20022;-80
2021/09/06 02:50:59;;;;;;;5.43;4.38;;;;;;;8.81;100.00;93628.22;2134171;27;20069;-80
2021/09/06 02:52:00;;;;;;;6.28;4.22;;;;;;;8.90;100.00;93630.44;2134302;27;20513;-79
2021/09/06 02:53:01;;;;;;;6.85;4.30;;;;;;;8.81;100.00;93630.88;2130129;27;20467;-80
2021/09/06 02:54:02;;;;;;;4.93;4.43;;;;;;;8.83;100.00;93633.94;2135119;27;20030;-80
2021/09/06 02:55:04;;;;;;;5.30;4.00;;;;;;;8.85;100.00;93642.28;2137940;27;20065;-79
2021/09/06 02:56:05;;;;;;;4.18;3.78;;;;;;;8.77;100.00;93635.47;2130277;27;20027;-78
2021/09/06 02:57:06;;;;;;;5.88;4.88;;;;;;;8.81;100.00;93636.97;2121741;27;20388;-82
2021/09/06 02:58:07;;;;;;;8.45;4.43;;;;;;;8.76;100.00;93637.41;2130172;27;20023;-83
2021/09/06 02:59:08;;;;;;;5.15;4.10;;;;;;;8.73;100.00;93632.84;2139150;27;20030;-79
2021/09/06 03:00:10;;;;;;;4.85;4.05;;;;;;;8.68;100.00;93637.81;2124263;27;20062;-82
2021/09/06 03:01:11;;;;;;;5.05;4.10;;;;;;;8.74;100.00;93638.94;2116849;27;20464;-80
2021/09/06 03:02:12;;;;;;;5.03;3.67;;;;;;;8.69;100.00;93639.34;2129147;27;20027;-80
2021/09/06 03:03:13;;;;;;;4.30;3.90;;;;;;;8.73;100.00;93629.41;2129194;27;20049;-80
2021/09/06 03:04:14;;;;;;;5.22;4.00;;;;;;;8.68;100.00;93632.50;2121315;27;20022;-80
2021/09/06 03:05:15;;;;;;;5.65;4.28;;;;;;;8.68;100.00;93633.25;2130922;27;20015;-81
2021/09/06 03:06:16;;;;;;;4.55;4.00;;;;;;;8.67;100.00;93631.00;2125258;27;20027;-80
2021/09/06 03:07:17;;;;;;;5.53;4.18;;;;;;;8.60;100.00;93636.34;2113169;28;20115;-81
2021/09/06 03:08:18;;;;;;;6.20;4.43;;;;;;;8.66;100.00;93624.16;2112834;28;20440;-81
2021/09/06 03:09:18;;;;;;;5.03;3.90;;;;;;;8.71;100.00;93631.72;2117626;28;20019;-83
2021/09/06 03:10:19;;;;;;;4.80;4.07;;;;;;;8.71;100.00;93627.16;2127042;27;20102;-81
2021/09/06 03:11:24;;;;;;;5.78;3.92;;;;;;;8.70;100.00;93622.97;2118996;27;20114;-82
2021/09/06 03:12:25;;;;;;;4.53;4.07;;;;;;;8.71;100.00;93621.81;2130373;27;20720;-82
2021/09/06 03:13:26;;;;;;;4.80;4.30;;;;;;;8.70;100.00;93619.56;2136421;27;20022;-79
2021/09/06 03:14:27;;;;;;;4.72;4.32;;;;;;;8.70;100.00;93622.97;2133119;27;20379;-81
2021/09/06 03:15:28;;;;;;;5.30;4.80;;;;;;;8.63;100.00;93620.34;2118322;28;20508;-81
2021/09/06 03:16:29;;;;;;;4.55;4.15;;;;;;;8.60;100.00;93618.44;2107510;27;20419;-81
2021/09/06 03:17:29;;;;;;;4.38;3.97;;;;;;;8.70;100.00;93627.56;2121373;27;20027;-81
2021/09/06 03:18:30;;;;;;;6.15;4.45;;;;;;;8.80;100.00;93624.06;2112821;28;20024;-81
2021/09/06 03:19:31;;;;;;;7.53;4.60;;;;;;;8.78;100.00;93621.78;2111765;28;20395;-79
2021/09/06 03:20:32;;;;;;;5.47;4.40;;;;;;;8.73;100.00;93619.50;2115505;28;20031;-82
2021/09/06 03:21:33;;;;;;;4.78;4.30;;;;;;;8.79;100.00;93623.28;2115501;28;20471;-81
2021/09/06 03:22:34;;;;;;;5.63;4.53;;;;;;;8.74;100.00;93630.94;2111908;28;20024;-82
2021/09/06 03:23:35;;;;;;;6.47;4.38;;;;;;;8.70;100.00;93622.97;2110966;28;20027;-82
2021/09/06 03:24:36;;;;;;;4.78;4.28;;;;;;;8.58;100.00;93629.50;2098883;28;20496;-81
2021/09/06 03:25:37;;;;;;;5.03;4.50;;;;;;;8.53;100.00;93623.84;2102968;28;20025;-81
2021/09/06 03:26:38;;;;;;;7.30;5.03;;;;;;;8.55;100.00;93624.19;2111093;28;20047;-78
2021/09/06 03:27:39;;;;;;;7.15;5.05;;;;;;;8.52;100.00;93625.75;2119859;27;20129;-81
2021/09/06 03:28:40;;;;;;;5.18;4.70;;;;;;;8.61;100.00;93627.97;2111580;28;20111;-81
2021/09/06 03:29:40;;;;;;;5.40;4.90;;;;;;;8.63;100.00;93624.91;2107155;28;20709;-81
2021/09/06 03:30:41;;;;;;;4.78;4.35;;;;;;;8.59;100.00;93619.59;2115560;28;20039;-82
2021/09/06 03:31:42;;;;;;;7.40;4.72;;;;;;;8.60;100.00;93626.44;2115369;28;20110;-80
2021/09/06 03:32:43;;;;;;;5.55;4.13;;;;;;;8.56;100.00;93617.75;2110358;28;20496;-80
2021/09/06 03:33:44;;;;;;;5.00;4.43;;;;;;;8.58;100.00;93612.78;2120738;27;20027;-81
2021/09/06 03:34:45;;;;;;;6.13;4.10;;;;;;;8.57;100.00;93620.00;2127543;27;20492;-80
2021/09/06 03:35:46;;;;;;;6.55;4.68;;;;;;;8.53;100.00;93619.28;2116526;27;20027;-82
2021/09/06 03:36:47;;;;;;;5.22;4.68;;;;;;;8.48;100.00;93614.34;2124061;27;20053;-81
2021/09/06 03:37:48;;;;;;;4.90;4.40;;;;;;;8.53;100.00;93610.53;2131595;27;20067;-80
2021/09/06 03:38:50;;;;;;;4.95;4.45;;;;;;;8.49;100.00;93615.09;2121086;27;20031;-80
2021/09/06 03:39:51;;;;;;;8.10;4.57;;;;;;;8.46;100.00;93611.31;2122348;27;20019;-81
2021/09/06 03:40:52;;;;;;;6.07;4.30;;;;;;;8.45;100.00;93609.03;2121808;27;20442;-79
2021/09/06 03:41:53;;;;;;;6.38;5.22;;;;;;;8.41;100.00;93613.63;2117711;27;20031;-82
2021/09/06 03:42:54;;;;;;;7.03;4.88;;;;;;;8.47;100.00;93612.06;2113344;28;20077;-80
2021/09/06 03:43:55;;;;;;;6.68;4.80;;;;;;;8.49;100.00;93615.88;2117274;27;20871;-80
2021/09/06 03:44:56;;;;;;;6.38;4.82;;;;;;;8.49;100.00;93615.88;2110975;28;20027;-79
2021/09/06 03:45:56;;;;;;;5.38;4.53;;;;;;;8.42;100.00;93620.47;2105219;28;20455;-81
2021/09/06 03:46:57;;;;;;;5.60;5.10;;;;;;;8.41;100.00;93617.03;2115404;28;20020;-81
2021/09/06 03:47:58;;;;;;;5.68;5.07;;;;;;;8.40;100.00;93617.44;2121148;27;20032;-79
2021/09/06 03:48:59;;;;;;;5.38;4.57;;;;;;;8.47;100.00;93618.16;2119505;27;20023;-79
2021/09/06 03:50:00;;;;;;;8.65;4.95;;;;;;;8.39;100.00;93615.94;2119466;27;20023;-82
2021/09/06 03:51:01;;;;;;;5.40;4.90;;;;;;;8.38;100.00;93615.16;2128797;27;20015;-82
2021/09/06 03:52:03;;;;;;;5.00;4.60;;;;;;;8.35;100.00;93620.50;2111220;28;20512;-81
2021/09/06 03:53:04;;;;;;;8.70;5.22;;;;;;;8.35;100.00;93620.50;2115009;27;20102;-80
2021/09/06 03:54:05;;;;;;;4.85;4.30;;;;;;;8.29;100.00;93623.53;2128823;27;20023;-80
2021/09/06 03:55:06;;;;;;;5.43;4.93;;;;;;;8.26;100.00;93627.00;2119486;27;20069;-79
2021/09/06 03:56:07;;;;;;;4.97;4.38;;;;;;;8.25;100.00;93624.69;2098681;28;20028;-79
2021/09/06 03:57:08;;;;;;;5.57;4.78;;;;;;;8.19;100.00;93619.03;2098443;28;20020;-79
2021/09/06 03:58:08;;;;;;;5.07;4.60;;;;;;;8.24;100.00;93625.84;2098526;28;20036;-79
2021/09/06 03:59:09;;;;;;;7.72;5.25;;;;;;;8.14;100.00;93629.34;2115563;28;20019;-77
2021/09/06 04:00:11;;;;;;;6.93;4.65;;;;;;;8.20;100.00;93625.88;2115122;28;20357;-80
2021/09/06 04:01:12;;;;;;;6.05;4.40;;;;;;;8.25;100.00;93625.47;2107049;28;20591;-79
2021/09/06 04:02:13;;;;;;;6.45;4.63;;;;;;;8.30;100.00;93626.97;2115488;28;20027;-78
2021/09/06 04:03:13;;;;;;;5.53;4.43;;;;;;;8.29;100.00;93625.44;2129188;27;20019;-81
2021/09/06 04:04:14;;;;;;;4.63;4.18;;;;;;;8.29;100.00;93625.44;2123000;27;20023;-78
2021/09/06 04:05:15;;;;;;;6.28;4.75;;;;;;;8.30;100.00;93625.06;2115161;28;20016;-80
2021/09/06 04:06:16;;;;;;;5.10;4.60;;;;;;;8.29;100.00;93618.22;2128426;27;20539;-79
2021/09/06 04:07:17;;;;;;;5.40;4.47;;;;;;;8.37;100.00;93621.63;2128741;27;20030;-77
2021/09/06 04:08:18;;;;;;;5.38;4.68;;;;;;;8.27;100.00;93625.09;2107007;28;20028;-80
2021/09/06 04:09:19;;;;;;;4.32;3.92;;;;;;;8.23;100.00;93619.78;2098118;28;20537;-80
2021/09/06 04:10:20;;;;;;;5.30;4.70;;;;;;;8.26;100.00;93626.25;2116990;27;20037;-79
2021/09/06 04:11:21;;;;;;;6.03;4.50;;;;;;;8.28;100.00;93618.59;2121263;27;20506;-79
2021/09/06 04:12:22;;;;;;;5.38;4.35;;;;;;;8.22;100.00;93626.25;2117146;27;20047;-80
2021/09/06 04:13:23;;;;;;;5.68;4.50;;;;;;;8.26;100.00;93618.25;2119089;27;20016;-81
2021/09/06 04:14:26;;;;;;;4.93;4.50;;;;;;;8.22;100.00;93620.16;2121663;27;20481;-80
2021/09/06 04:15:27;;;;;;;5.47;4.43;;;;;;;8.14;100.00;93621.34;2117585;27;20019;-82
2021/09/06 04:16:28;;;;;;;4.93;4.35;;;;;;;8.20;100.00;93630.44;2123628;27;20675;-78
2021/09/06 04:17:30;;;;;;;7.55;4.25;;;;;;;8.20;100.00;93614.47;2123663;27;20019;-77
2021/09/06 04:18:31;;;;;;;4.97;4.47;;;;;;;8.24;100.00;93623.19;2114722;28;20019;-80
2021/09/06 04:19:32;;;;;;;4.97;4.35;;;;;;;8.22;100.00;93620.94;2118424;27;20027;-79
2021/09/06 04:20:33;;;;;;;9.65;4.65;;;;;;;8.24;100.00;93617.88;2132339;27;20102;-80
2021/09/06 04:21:34;;;;;;;7.35;4.60;;;;;;;8.20;100.00;93622.44;2111012;28;20028;-81
2021/09/06 04:22:37;;;;;;;5.45;4.38;;;;;;;8.16;100.00;93619.03;2102323;28;20032;-79
2021/09/06 04:23:39;;;;;;;6.50;4.68;;;;;;;8.28;100.00;93616.69;2106612;28;20020;-81
2021/09/06 04:24:40;;;;;;;5.97;4.65;;;;;;;8.13;100.00;93625.91;2114159;27;20030;-80
2021/09/06 04:25:40;;;;;;;4.93;4.07;;;;;;;8.07;100.00;93622.88;2127715;27;20030;-80
2021/09/06 04:26:41;;;;;;;6.05;4.38;;;;;;;8.10;100.00;93623.25;2117784;27;20416;-80
2021/09/06 04:27:43;;;;;;;5.53;4.95;;;;;;;8.09;100.00;93625.16;2106314;28;20032;-82
2021/09/06 04:28:44;;;;;;;6.40;5.10;;;;;;;8.05;100.00;93622.50;2118061;27;20070;-79
2021/09/06 04:29:45;;;;;;;6.10;4.63;;;;;;;8.10;100.00;93626.69;2130209;27;20026;-79
2021/09/06 04:30:45;;;;;;;5.50;5.00;;;;;;;8.01;100.00;93629.00;2127023;27;20023;-81
2021/09/06 04:31:48;;;;;;;5.00;4.50;;;;;;;8.05;100.00;93630.50;2120259;27;20031;-79
2021/09/06 04:32:49;;;;;;;6.80;4.18;;;;;;;8.11;100.00;93630.84;2117711;27;20032;-79
2021/09/06 04:33:50;;;;;;;5.30;4.72;;;;;;;8.12;100.00;93626.28;2120728;27;20107;-81
2021/09/06 04:34:51;;;;;;;6.40;5.10;;;;;;;8.14;100.00;93634.66;2123475;27;20817;-80
2021/09/06 04:35:52;;;;;;;8.52;4.75;;;;;;;8.04;100.00;93631.66;2121517;27;20026;-82
2021/09/06 04:36:53;;;;;;;6.05;4.47;;;;;;;8.13;100.00;93630.47;2130365;27;20536;-81
2021/09/06 04:37:54;;;;;;;6.00;4.82;;;;;;;8.12;100.00;93639.59;2126786;27;20464;-80
2021/09/06 04:38:55;;;;;;;5.13;4.72;;;;;;;8.04;100.00;93641.53;2113044;28;20020;-79
2021/09/06 04:39:56;;;;;;;6.07;4.20;;;;;;;8.03;100.00;93643.44;2108339;28;20024;-79
2021/09/06 04:40:57;;;;;;;4.82;4.43;;;;;;;8.18;100.00;93641.47;2113273;28;20031;-79
2021/09/06 04:41:58;;;;;;;5.32;4.82;;;;;;;7.96;100.00;93643.47;2114862;28;20388;-80
2021/09/06 04:42:59;;;;;;;5.32;4.72;;;;;;;7.92;100.00;93641.97;2106520;28;20058;-80
2021/09/06 04:44:00;;;;;;;5.75;4.30;;;;;;;7.99;100.00;93645.38;2106658;28;20487;-78
2021/09/06 04:45:01;;;;;;;5.63;4.60;;;;;;;7.97;100.00;93647.63;2114921;28;20027;-80
2021/09/06 04:46:02;;;;;;;5.85;5.25;;;;;;;8.01;100.00;93651.06;2106810;28;20325;-82
2021/09/06 04:47:03;;;;;;;6.20;5.28;;;;;;;7.99;100.00;93647.25;2114999;28;20099;-80
2021/09/06 04:48:04;;;;;;;5.57;5.07;;;;;;;8.01;100.00;93650.28;2106591;28;20073;-81
2021/09/06 04:49:05;;;;;;;5.25;4.75;;;;;;;8.08;100.00;93647.63;2114317;28;20019;-81
2021/09/06 04:50:07;;;;;;;6.05;4.97;;;;;;;7.97;100.00;93650.31;2115466;28;20024;-79
2021/09/06 04:51:08;;;;;;;6.75;5.00;;;;;;;7.94;100.00;93653.72;2123084;27;20051;-81
2021/09/06 04:52:09;;;;;;;6.00;5.40;;;;;;;8.04;100.00;93652.94;2114760;27;20027;-80